sensor_id;sensor_type;location;lat;lon;timestamp;P1;durP1;ratioP1;P2;durP2;ratioP2
74715;SDS011;63234;37.558;127.058;2024-01-30T00:00:20;23.05;;;13.07;;
74715;SDS011;63234;37.558;127.058;2024-01-30T00:02:46;14.27;;;10.25;;
74715;SDS011;63234;37.558;127.058;2024-01-30T00:05:11;20.30;;;9.48;;
74715;SDS011;63234;37.558;127.058;2024-01-30T00:07:37;16.10;;;10.20;;
74715;SDS011;63234;37.558;127.058;2024-01-30T00:10:02;21.20;;;9.02;;
74715;SDS011;63234;37.558;127.058;2024-01-30T00:12:28;21.30;;;12.40;;
74715;SDS011;63234;37.558;127.058;2024-01-30T00:14:53;25.23;;;11.27;;
74715;SDS011;63234;37.558;127.058;2024-01-30T00:17:19;21.17;;;11.43;;
74715;SDS011;63234;37.558;127.058;2024-01-30T00:19:45;17.00;;;10.75;;
74715;SDS011;63234;37.558;127.058;2024-01-30T00:22:11;20.65;;;10.82;;
74715;SDS011;63234;37.558;127.058;2024-01-30T00:24:36;19.63;;;13.48;;
74715;SDS011;63234;37.558;127.058;2024-01-30T00:27:02;13.05;;;9.25;;
74715;SDS011;63234;37.558;127.058;2024-01-30T00:29:27;15.40;;;8.82;;
74715;SDS011;63234;37.558;127.058;2024-01-30T00:31:56;16.27;;;8.93;;
74715;SDS011;63234;37.558;127.058;2024-01-30T00:34:21;13.77;;;9.18;;
74715;SDS011;63234;37.558;127.058;2024-01-30T00:36:46;15.95;;;9.23;;
74715;SDS011;63234;37.558;127.058;2024-01-30T00:39:12;14.20;;;8.38;;
74715;SDS011;63234;37.558;127.058;2024-01-30T00:41:37;13.05;;;9.55;;
74715;SDS011;63234;37.558;127.058;2024-01-30T00:44:03;19.52;;;11.88;;
74715;SDS011;63234;37.558;127.058;2024-01-30T00:46:28;11.73;;;8.73;;
74715;SDS011;63234;37.558;127.058;2024-01-30T00:48:54;25.25;;;10.20;;
74715;SDS011;63234;37.558;127.058;2024-01-30T00:51:19;13.63;;;10.30;;
74715;SDS011;63234;37.558;127.058;2024-01-30T00:53:44;13.90;;;10.43;;
74715;SDS011;63234;37.558;127.058;2024-01-30T00:56:10;29.00;;;9.30;;
74715;SDS011;63234;37.558;127.058;2024-01-30T00:58:35;16.48;;;10.10;;
74715;SDS011;63234;37.558;127.058;2024-01-30T01:01:00;16.33;;;8.35;;
74715;SDS011;63234;37.558;127.058;2024-01-30T01:03:26;16.35;;;8.98;;
74715;SDS011;63234;37.558;127.058;2024-01-30T01:05:51;16.38;;;10.48;;
74715;SDS011;63234;37.558;127.058;2024-01-30T01:08:16;14.25;;;10.52;;
74715;SDS011;63234;37.558;127.058;2024-01-30T01:10:43;18.48;;;11.90;;
74715;SDS011;63234;37.558;127.058;2024-01-30T01:13:08;14.10;;;9.55;;
74715;SDS011;63234;37.558;127.058;2024-01-30T01:15:33;15.65;;;8.88;;
74715;SDS011;63234;37.558;127.058;2024-01-30T01:17:58;21.48;;;13.02;;
74715;SDS011;63234;37.558;127.058;2024-01-30T01:20:24;24.13;;;11.35;;
74715;SDS011;63234;37.558;127.058;2024-01-30T01:22:49;14.27;;;8.15;;
74715;SDS011;63234;37.558;127.058;2024-01-30T01:25:15;15.63;;;10.05;;
74715;SDS011;63234;37.558;127.058;2024-01-30T01:27:40;18.70;;;13.48;;
74715;SDS011;63234;37.558;127.058;2024-01-30T01:30:10;12.20;;;9.70;;
74715;SDS011;63234;37.558;127.058;2024-01-30T01:32:36;18.55;;;11.68;;
74715;SDS011;63234;37.558;127.058;2024-01-30T01:35:03;15.45;;;9.82;;
74715;SDS011;63234;37.558;127.058;2024-01-30T01:37:30;15.35;;;9.63;;
74715;SDS011;63234;37.558;127.058;2024-01-30T01:39:56;16.75;;;10.05;;
74715;SDS011;63234;37.558;127.058;2024-01-30T01:42:21;15.02;;;9.55;;
74715;SDS011;63234;37.558;127.058;2024-01-30T01:44:47;14.88;;;9.65;;
74715;SDS011;63234;37.558;127.058;2024-01-30T01:47:12;16.38;;;9.40;;
74715;SDS011;63234;37.558;127.058;2024-01-30T01:49:39;12.82;;;8.60;;
74715;SDS011;63234;37.558;127.058;2024-01-30T01:52:04;11.40;;;9.20;;
74715;SDS011;63234;37.558;127.058;2024-01-30T01:54:31;15.45;;;9.15;;
74715;SDS011;63234;37.558;127.058;2024-01-30T01:56:57;17.40;;;8.65;;
74715;SDS011;63234;37.558;127.058;2024-01-30T01:59:22;17.67;;;8.82;;
74715;SDS011;63234;37.558;127.058;2024-01-30T02:01:49;17.42;;;10.35;;
74715;SDS011;63234;37.558;127.058;2024-01-30T02:04:17;14.88;;;10.07;;
74715;SDS011;63234;37.558;127.058;2024-01-30T02:06:43;13.95;;;9.82;;
74715;SDS011;63234;37.558;127.058;2024-01-30T02:09:08;19.00;;;10.65;;
74715;SDS011;63234;37.558;127.058;2024-01-30T02:11:34;12.70;;;8.10;;
74715;SDS011;63234;37.558;127.058;2024-01-30T02:14:05;13.63;;;9.48;;
74715;SDS011;63234;37.558;127.058;2024-01-30T02:16:31;17.58;;;9.13;;
74715;SDS011;63234;37.558;127.058;2024-01-30T02:18:57;14.50;;;8.70;;
74715;SDS011;63234;37.558;127.058;2024-01-30T02:21:22;13.43;;;6.82;;
74715;SDS011;63234;37.558;127.058;2024-01-30T02:23:48;10.95;;;8.27;;
74715;SDS011;63234;37.558;127.058;2024-01-30T02:26:14;15.60;;;5.63;;
74715;SDS011;63234;37.558;127.058;2024-01-30T02:28:39;12.00;;;8.82;;
74715;SDS011;63234;37.558;127.058;2024-01-30T02:31:05;6.97;;;6.20;;
74715;SDS011;63234;37.558;127.058;2024-01-30T02:33:30;18.15;;;5.57;;
74715;SDS011;63234;37.558;127.058;2024-01-30T02:35:55;8.85;;;6.57;;
74715;SDS011;63234;37.558;127.058;2024-01-30T02:38:21;6.07;;;5.43;;
74715;SDS011;63234;37.558;127.058;2024-01-30T02:40:46;12.35;;;7.88;;
74715;SDS011;63234;37.558;127.058;2024-01-30T02:43:11;12.80;;;7.45;;
74715;SDS011;63234;37.558;127.058;2024-01-30T02:45:37;12.18;;;6.80;;
74715;SDS011;63234;37.558;127.058;2024-01-30T02:48:02;14.55;;;6.10;;
74715;SDS011;63234;37.558;127.058;2024-01-30T02:50:28;9.23;;;5.85;;
74715;SDS011;63234;37.558;127.058;2024-01-30T02:52:53;15.05;;;7.72;;
74715;SDS011;63234;37.558;127.058;2024-01-30T02:55:18;10.65;;;6.68;;
74715;SDS011;63234;37.558;127.058;2024-01-30T02:57:44;8.13;;;6.05;;
74715;SDS011;63234;37.558;127.058;2024-01-30T03:00:10;8.88;;;6.40;;
74715;SDS011;63234;37.558;127.058;2024-01-30T03:02:36;8.88;;;7.18;;
74715;SDS011;63234;37.558;127.058;2024-01-30T03:05:02;11.23;;;7.15;;
74715;SDS011;63234;37.558;127.058;2024-01-30T03:07:28;11.07;;;7.60;;
74715;SDS011;63234;37.558;127.058;2024-01-30T03:09:54;10.05;;;6.30;;
74715;SDS011;63234;37.558;127.058;2024-01-30T03:12:20;9.45;;;7.38;;
74715;SDS011;63234;37.558;127.058;2024-01-30T03:14:46;16.30;;;7.72;;
74715;SDS011;63234;37.558;127.058;2024-01-30T03:17:11;14.90;;;7.55;;
74715;SDS011;63234;37.558;127.058;2024-01-30T03:19:36;10.85;;;7.00;;
74715;SDS011;63234;37.558;127.058;2024-01-30T03:22:02;11.70;;;7.90;;
74715;SDS011;63234;37.558;127.058;2024-01-30T03:24:27;10.45;;;8.43;;
74715;SDS011;63234;37.558;127.058;2024-01-30T03:26:53;8.35;;;6.55;;
74715;SDS011;63234;37.558;127.058;2024-01-30T03:29:18;8.25;;;6.78;;
74715;SDS011;63234;37.558;127.058;2024-01-30T03:31:43;7.25;;;5.68;;
74715;SDS011;63234;37.558;127.058;2024-01-30T03:34:09;12.25;;;6.40;;
74715;SDS011;63234;37.558;127.058;2024-01-30T03:36:34;12.88;;;8.05;;
74715;SDS011;63234;37.558;127.058;2024-01-30T03:39:00;12.57;;;9.02;;
74715;SDS011;63234;37.558;127.058;2024-01-30T03:41:25;13.82;;;8.55;;
74715;SDS011;63234;37.558;127.058;2024-01-30T03:43:51;18.42;;;10.00;;
74715;SDS011;63234;37.558;127.058;2024-01-30T03:46:16;16.70;;;8.73;;
74715;SDS011;63234;37.558;127.058;2024-01-30T03:48:42;12.10;;;8.90;;
74715;SDS011;63234;37.558;127.058;2024-01-30T03:51:07;10.30;;;5.95;;
74715;SDS011;63234;37.558;127.058;2024-01-30T03:53:34;13.38;;;8.43;;
74715;SDS011;63234;37.558;127.058;2024-01-30T03:56:00;13.82;;;8.75;;
74715;SDS011;63234;37.558;127.058;2024-01-30T03:58:25;14.65;;;8.05;;
74715;SDS011;63234;37.558;127.058;2024-01-30T04:00:51;36.45;;;9.90;;
74715;SDS011;63234;37.558;127.058;2024-01-30T04:03:16;11.85;;;7.90;;
74715;SDS011;63234;37.558;127.058;2024-01-30T04:05:42;10.50;;;7.50;;
74715;SDS011;63234;37.558;127.058;2024-01-30T04:08:07;11.65;;;7.57;;
74715;SDS011;63234;37.558;127.058;2024-01-30T04:10:33;10.60;;;9.20;;
74715;SDS011;63234;37.558;127.058;2024-01-30T04:12:59;16.42;;;8.52;;
74715;SDS011;63234;37.558;127.058;2024-01-30T04:15:25;12.60;;;8.18;;
74715;SDS011;63234;37.558;127.058;2024-01-30T04:17:50;16.23;;;9.43;;
74715;SDS011;63234;37.558;127.058;2024-01-30T04:20:16;14.30;;;9.25;;
74715;SDS011;63234;37.558;127.058;2024-01-30T04:22:43;16.58;;;8.13;;
74715;SDS011;63234;37.558;127.058;2024-01-30T04:25:12;8.23;;;5.57;;
74715;SDS011;63234;37.558;127.058;2024-01-30T04:27:38;12.30;;;8.55;;
74715;SDS011;63234;37.558;127.058;2024-01-30T04:30:04;10.30;;;7.25;;
74715;SDS011;63234;37.558;127.058;2024-01-30T04:32:30;8.07;;;6.20;;
74715;SDS011;63234;37.558;127.058;2024-01-30T04:34:55;9.13;;;6.43;;
74715;SDS011;63234;37.558;127.058;2024-01-30T04:37:20;13.48;;;7.45;;
74715;SDS011;63234;37.558;127.058;2024-01-30T04:39:46;16.98;;;8.23;;
74715;SDS011;63234;37.558;127.058;2024-01-30T04:42:12;13.10;;;7.72;;
74715;SDS011;63234;37.558;127.058;2024-01-30T04:44:37;10.73;;;6.18;;
74715;SDS011;63234;37.558;127.058;2024-01-30T04:47:03;13.48;;;6.90;;
74715;SDS011;63234;37.558;127.058;2024-01-30T04:49:31;9.18;;;6.22;;
74715;SDS011;63234;37.558;127.058;2024-01-30T04:51:57;6.60;;;5.45;;
74715;SDS011;63234;37.558;127.058;2024-01-30T04:54:22;9.43;;;5.40;;
74715;SDS011;63234;37.558;127.058;2024-01-30T04:56:48;8.50;;;6.57;;
74715;SDS011;63234;37.558;127.058;2024-01-30T04:59:13;9.63;;;5.78;;
74715;SDS011;63234;37.558;127.058;2024-01-30T05:01:39;13.60;;;8.43;;
74715;SDS011;63234;37.558;127.058;2024-01-30T05:04:06;9.02;;;6.75;;
74715;SDS011;63234;37.558;127.058;2024-01-30T05:06:33;6.70;;;5.65;;
74715;SDS011;63234;37.558;127.058;2024-01-30T05:08:58;7.30;;;4.90;;
74715;SDS011;63234;37.558;127.058;2024-01-30T05:11:23;12.57;;;5.88;;
74715;SDS011;63234;37.558;127.058;2024-01-30T05:13:49;7.88;;;5.60;;
74715;SDS011;63234;37.558;127.058;2024-01-30T05:16:14;8.77;;;7.40;;
74715;SDS011;63234;37.558;127.058;2024-01-30T05:18:39;5.68;;;4.57;;
74715;SDS011;63234;37.558;127.058;2024-01-30T05:21:05;11.10;;;6.35;;
74715;SDS011;63234;37.558;127.058;2024-01-30T05:23:30;7.03;;;5.03;;
74715;SDS011;63234;37.558;127.058;2024-01-30T05:25:55;7.95;;;4.88;;
74715;SDS011;63234;37.558;127.058;2024-01-30T05:28:21;4.05;;;3.65;;
74715;SDS011;63234;37.558;127.058;2024-01-30T05:30:46;10.52;;;5.95;;
74715;SDS011;63234;37.558;127.058;2024-01-30T05:33:12;9.98;;;3.53;;
74715;SDS011;63234;37.558;127.058;2024-01-30T05:35:38;7.07;;;4.13;;
74715;SDS011;63234;37.558;127.058;2024-01-30T05:38:04;4.78;;;3.80;;
74715;SDS011;63234;37.558;127.058;2024-01-30T05:40:29;3.40;;;3.10;;
74715;SDS011;63234;37.558;127.058;2024-01-30T05:42:57;12.48;;;3.90;;
74715;SDS011;63234;37.558;127.058;2024-01-30T05:45:27;8.57;;;4.40;;
74715;SDS011;63234;37.558;127.058;2024-01-30T05:47:53;5.85;;;4.43;;
74715;SDS011;63234;37.558;127.058;2024-01-30T05:50:21;3.90;;;2.42;;
74715;SDS011;63234;37.558;127.058;2024-01-30T05:52:48;10.65;;;4.55;;
74715;SDS011;63234;37.558;127.058;2024-01-30T05:55:13;6.55;;;4.03;;
74715;SDS011;63234;37.558;127.058;2024-01-30T05:57:39;7.20;;;4.57;;
74715;SDS011;63234;37.558;127.058;2024-01-30T06:00:05;3.45;;;2.85;;
74715;SDS011;63234;37.558;127.058;2024-01-30T06:02:32;4.18;;;2.45;;
74715;SDS011;63234;37.558;127.058;2024-01-30T06:04:58;6.95;;;3.42;;
74715;SDS011;63234;37.558;127.058;2024-01-30T06:07:23;6.18;;;4.10;;
74715;SDS011;63234;37.558;127.058;2024-01-30T06:09:48;4.60;;;3.75;;
74715;SDS011;63234;37.558;127.058;2024-01-30T06:12:14;7.82;;;4.28;;
74715;SDS011;63234;37.558;127.058;2024-01-30T06:14:39;5.00;;;3.88;;
74715;SDS011;63234;37.558;127.058;2024-01-30T06:17:05;7.07;;;4.13;;
74715;SDS011;63234;37.558;127.058;2024-01-30T06:19:31;6.90;;;3.58;;
74715;SDS011;63234;37.558;127.058;2024-01-30T06:21:56;7.32;;;4.22;;
74715;SDS011;63234;37.558;127.058;2024-01-30T06:24:22;8.75;;;5.43;;
74715;SDS011;63234;37.558;127.058;2024-01-30T06:26:47;6.68;;;3.78;;
74715;SDS011;63234;37.558;127.058;2024-01-30T06:29:12;5.43;;;4.10;;
74715;SDS011;63234;37.558;127.058;2024-01-30T06:31:40;5.70;;;3.58;;
74715;SDS011;63234;37.558;127.058;2024-01-30T06:34:06;3.85;;;3.20;;
74715;SDS011;63234;37.558;127.058;2024-01-30T06:36:32;6.38;;;4.47;;
74715;SDS011;63234;37.558;127.058;2024-01-30T06:38:58;13.07;;;4.03;;
74715;SDS011;63234;37.558;127.058;2024-01-30T06:41:23;11.30;;;6.05;;
74715;SDS011;63234;37.558;127.058;2024-01-30T06:43:49;5.68;;;3.65;;
74715;SDS011;63234;37.558;127.058;2024-01-30T06:46:15;7.25;;;4.10;;
74715;SDS011;63234;37.558;127.058;2024-01-30T06:48:40;7.13;;;4.53;;
74715;SDS011;63234;37.558;127.058;2024-01-30T06:51:06;8.05;;;4.35;;
74715;SDS011;63234;37.558;127.058;2024-01-30T06:53:31;8.82;;;4.63;;
74715;SDS011;63234;37.558;127.058;2024-01-30T06:55:57;5.55;;;3.75;;
74715;SDS011;63234;37.558;127.058;2024-01-30T06:58:22;7.65;;;5.05;;
74715;SDS011;63234;37.558;127.058;2024-01-30T07:00:48;9.48;;;3.85;;
74715;SDS011;63234;37.558;127.058;2024-01-30T07:03:13;9.73;;;4.60;;
74715;SDS011;63234;37.558;127.058;2024-01-30T07:05:38;18.40;;;5.28;;
74715;SDS011;63234;37.558;127.058;2024-01-30T07:08:04;14.50;;;5.38;;
74715;SDS011;63234;37.558;127.058;2024-01-30T07:10:29;7.75;;;4.75;;
74715;SDS011;63234;37.558;127.058;2024-01-30T07:12:56;9.15;;;5.38;;
74715;SDS011;63234;37.558;127.058;2024-01-30T07:15:21;13.80;;;6.50;;
74715;SDS011;63234;37.558;127.058;2024-01-30T07:17:47;8.60;;;5.50;;
74715;SDS011;63234;37.558;127.058;2024-01-30T07:20:12;8.20;;;4.55;;
74715;SDS011;63234;37.558;127.058;2024-01-30T07:22:38;7.07;;;4.78;;
74715;SDS011;63234;37.558;127.058;2024-01-30T07:25:03;8.10;;;5.28;;
74715;SDS011;63234;37.558;127.058;2024-01-30T07:27:29;8.80;;;5.00;;
74715;SDS011;63234;37.558;127.058;2024-01-30T07:29:54;8.45;;;4.50;;
74715;SDS011;63234;37.558;127.058;2024-01-30T07:32:20;6.50;;;4.32;;
74715;SDS011;63234;37.558;127.058;2024-01-30T07:34:45;7.10;;;3.90;;
74715;SDS011;63234;37.558;127.058;2024-01-30T07:37:10;17.75;;;5.75;;
74715;SDS011;63234;37.558;127.058;2024-01-30T07:39:40;6.57;;;4.13;;
74715;SDS011;63234;37.558;127.058;2024-01-30T07:42:05;9.15;;;4.68;;
74715;SDS011;63234;37.558;127.058;2024-01-30T07:44:31;8.55;;;4.50;;
74715;SDS011;63234;37.558;127.058;2024-01-30T07:46:56;8.75;;;3.55;;
74715;SDS011;63234;37.558;127.058;2024-01-30T07:49:22;9.18;;;4.93;;
74715;SDS011;63234;37.558;127.058;2024-01-30T07:51:47;10.05;;;4.63;;
74715;SDS011;63234;37.558;127.058;2024-01-30T07:54:14;9.20;;;5.22;;
74715;SDS011;63234;37.558;127.058;2024-01-30T07:56:39;9.80;;;5.50;;
74715;SDS011;63234;37.558;127.058;2024-01-30T07:59:05;8.48;;;4.47;;
74715;SDS011;63234;37.558;127.058;2024-01-30T08:01:30;8.38;;;4.95;;
74715;SDS011;63234;37.558;127.058;2024-01-30T08:03:56;16.63;;;4.78;;
74715;SDS011;63234;37.558;127.058;2024-01-30T08:06:21;7.63;;;5.38;;
74715;SDS011;63234;37.558;127.058;2024-01-30T08:08:46;6.53;;;3.65;;
74715;SDS011;63234;37.558;127.058;2024-01-30T08:11:12;10.40;;;6.60;;
74715;SDS011;63234;37.558;127.058;2024-01-30T08:13:37;11.35;;;4.50;;
74715;SDS011;63234;37.558;127.058;2024-01-30T08:16:03;8.77;;;5.38;;
74715;SDS011;63234;37.558;127.058;2024-01-30T08:18:29;13.18;;;5.90;;
74715;SDS011;63234;37.558;127.058;2024-01-30T08:20:54;9.23;;;5.38;;
74715;SDS011;63234;37.558;127.058;2024-01-30T08:23:20;6.80;;;4.07;;
74715;SDS011;63234;37.558;127.058;2024-01-30T08:25:45;7.57;;;4.15;;
74715;SDS011;63234;37.558;127.058;2024-01-30T08:28:10;13.30;;;5.75;;
74715;SDS011;63234;37.558;127.058;2024-01-30T08:30:36;7.45;;;3.38;;
74715;SDS011;63234;37.558;127.058;2024-01-30T08:33:01;17.13;;;5.10;;
74715;SDS011;63234;37.558;127.058;2024-01-30T08:35:26;7.63;;;5.07;;
74715;SDS011;63234;37.558;127.058;2024-01-30T08:37:52;7.28;;;4.00;;
74715;SDS011;63234;37.558;127.058;2024-01-30T08:40:19;10.25;;;4.82;;
74715;SDS011;63234;37.558;127.058;2024-01-30T08:42:44;7.78;;;4.70;;
74715;SDS011;63234;37.558;127.058;2024-01-30T08:45:09;10.27;;;4.82;;
74715;SDS011;63234;37.558;127.058;2024-01-30T08:47:35;7.10;;;3.83;;
74715;SDS011;63234;37.558;127.058;2024-01-30T08:50:00;6.63;;;4.43;;
74715;SDS011;63234;37.558;127.058;2024-01-30T08:52:26;11.68;;;5.45;;
74715;SDS011;63234;37.558;127.058;2024-01-30T08:54:51;10.40;;;5.15;;
74715;SDS011;63234;37.558;127.058;2024-01-30T08:57:16;9.77;;;4.55;;
74715;SDS011;63234;37.558;127.058;2024-01-30T08:59:42;8.95;;;4.60;;
74715;SDS011;63234;37.558;127.058;2024-01-30T09:02:09;7.50;;;4.30;;
74715;SDS011;63234;37.558;127.058;2024-01-30T09:04:37;10.82;;;5.60;;
74715;SDS011;63234;37.558;127.058;2024-01-30T09:07:02;11.85;;;4.35;;
74715;SDS011;63234;37.558;127.058;2024-01-30T09:09:30;8.40;;;4.35;;
74715;SDS011;63234;37.558;127.058;2024-01-30T09:11:55;10.20;;;5.03;;
74715;SDS011;63234;37.558;127.058;2024-01-30T09:14:20;8.50;;;5.15;;
74715;SDS011;63234;37.558;127.058;2024-01-30T09:16:46;10.63;;;3.80;;
74715;SDS011;63234;37.558;127.058;2024-01-30T09:19:13;10.35;;;5.07;;
74715;SDS011;63234;37.558;127.058;2024-01-30T09:21:38;10.18;;;4.97;;
74715;SDS011;63234;37.558;127.058;2024-01-30T09:24:04;11.52;;;5.47;;
74715;SDS011;63234;37.558;127.058;2024-01-30T09:26:30;11.88;;;5.07;;
74715;SDS011;63234;37.558;127.058;2024-01-30T09:28:55;13.07;;;4.82;;
74715;SDS011;63234;37.558;127.058;2024-01-30T09:31:21;9.82;;;5.55;;
74715;SDS011;63234;37.558;127.058;2024-01-30T09:33:46;13.18;;;5.35;;
74715;SDS011;63234;37.558;127.058;2024-01-30T09:36:13;10.77;;;5.07;;
74715;SDS011;63234;37.558;127.058;2024-01-30T09:38:43;9.27;;;5.00;;
74715;SDS011;63234;37.558;127.058;2024-01-30T09:41:09;11.65;;;4.28;;
74715;SDS011;63234;37.558;127.058;2024-01-30T09:43:38;10.75;;;5.55;;
74715;SDS011;63234;37.558;127.058;2024-01-30T09:46:07;14.40;;;5.40;;
74715;SDS011;63234;37.558;127.058;2024-01-30T09:48:43;11.85;;;4.70;;
74715;SDS011;63234;37.558;127.058;2024-01-30T09:51:11;5.72;;;3.88;;
74715;SDS011;63234;37.558;127.058;2024-01-30T09:53:39;11.30;;;5.85;;
74715;SDS011;63234;37.558;127.058;2024-01-30T09:56:07;9.43;;;4.85;;
74715;SDS011;63234;37.558;127.058;2024-01-30T09:58:32;16.13;;;4.38;;
74715;SDS011;63234;37.558;127.058;2024-01-30T10:00:58;12.65;;;6.38;;
74715;SDS011;63234;37.558;127.058;2024-01-30T10:03:23;12.05;;;5.53;;
74715;SDS011;63234;37.558;127.058;2024-01-30T10:05:50;12.65;;;5.15;;
74715;SDS011;63234;37.558;127.058;2024-01-30T10:08:17;15.30;;;5.65;;
74715;SDS011;63234;37.558;127.058;2024-01-30T10:10:45;9.63;;;5.63;;
74715;SDS011;63234;37.558;127.058;2024-01-30T10:13:11;9.50;;;5.18;;
74715;SDS011;63234;37.558;127.058;2024-01-30T10:15:37;7.47;;;4.68;;
74715;SDS011;63234;37.558;127.058;2024-01-30T10:18:04;10.48;;;5.30;;
74715;SDS011;63234;37.558;127.058;2024-01-30T10:20:32;9.82;;;4.78;;
74715;SDS011;63234;37.558;127.058;2024-01-30T10:22:57;11.32;;;4.88;;
74715;SDS011;63234;37.558;127.058;2024-01-30T10:25:23;9.38;;;4.32;;
74715;SDS011;63234;37.558;127.058;2024-01-30T10:27:55;8.90;;;4.43;;
74715;SDS011;63234;37.558;127.058;2024-01-30T10:30:21;10.00;;;5.65;;
74715;SDS011;63234;37.558;127.058;2024-01-30T10:32:47;7.43;;;4.13;;
74715;SDS011;63234;37.558;127.058;2024-01-30T10:35:12;6.93;;;3.95;;
74715;SDS011;63234;37.558;127.058;2024-01-30T10:37:38;14.00;;;5.40;;
74715;SDS011;63234;37.558;127.058;2024-01-30T10:40:04;6.90;;;4.63;;
74715;SDS011;63234;37.558;127.058;2024-01-30T10:42:31;10.98;;;5.28;;
74715;SDS011;63234;37.558;127.058;2024-01-30T10:45:02;10.93;;;5.63;;
74715;SDS011;63234;37.558;127.058;2024-01-30T10:47:35;15.05;;;4.95;;
74715;SDS011;63234;37.558;127.058;2024-01-30T10:50:04;8.10;;;4.35;;
74715;SDS011;63234;37.558;127.058;2024-01-30T10:52:30;11.20;;;4.85;;
74715;SDS011;63234;37.558;127.058;2024-01-30T10:54:57;8.20;;;4.63;;
74715;SDS011;63234;37.558;127.058;2024-01-30T10:57:24;9.30;;;4.10;;
74715;SDS011;63234;37.558;127.058;2024-01-30T10:59:51;7.82;;;4.57;;
74715;SDS011;63234;37.558;127.058;2024-01-30T11:02:21;7.93;;;4.85;;
74715;SDS011;63234;37.558;127.058;2024-01-30T11:04:49;9.57;;;4.43;;
74715;SDS011;63234;37.558;127.058;2024-01-30T11:07:17;11.18;;;5.15;;
74715;SDS011;63234;37.558;127.058;2024-01-30T11:09:50;11.32;;;5.07;;
74715;SDS011;63234;37.558;127.058;2024-01-30T11:12:27;8.63;;;4.03;;
74715;SDS011;63234;37.558;127.058;2024-01-30T11:15:03;10.20;;;5.25;;
74715;SDS011;63234;37.558;127.058;2024-01-30T11:17:43;13.52;;;4.90;;
74715;SDS011;63234;37.558;127.058;2024-01-30T11:22:46;10.05;;;4.15;;
74715;SDS011;63234;37.558;127.058;2024-01-30T11:25:13;10.38;;;4.60;;
74715;SDS011;63234;37.558;127.058;2024-01-30T11:27:40;11.00;;;4.38;;
74715;SDS011;63234;37.558;127.058;2024-01-30T11:30:07;10.30;;;5.28;;
74715;SDS011;63234;37.558;127.058;2024-01-30T11:32:33;8.35;;;5.38;;
74715;SDS011;63234;37.558;127.058;2024-01-30T11:34:58;10.75;;;4.43;;
74715;SDS011;63234;37.558;127.058;2024-01-30T11:37:24;10.45;;;6.13;;
74715;SDS011;63234;37.558;127.058;2024-01-30T11:39:51;9.75;;;4.63;;
74715;SDS011;63234;37.558;127.058;2024-01-30T11:42:19;11.10;;;4.57;;
74715;SDS011;63234;37.558;127.058;2024-01-30T11:44:48;10.95;;;4.75;;
74715;SDS011;63234;37.558;127.058;2024-01-30T11:47:14;8.18;;;4.85;;
74715;SDS011;63234;37.558;127.058;2024-01-30T11:49:39;8.82;;;3.88;;
74715;SDS011;63234;37.558;127.058;2024-01-30T11:52:05;8.13;;;3.90;;
74715;SDS011;63234;37.558;127.058;2024-01-30T11:54:30;8.88;;;5.00;;
74715;SDS011;63234;37.558;127.058;2024-01-30T11:56:56;12.82;;;5.45;;
74715;SDS011;63234;37.558;127.058;2024-01-30T11:59:21;7.65;;;3.95;;
74715;SDS011;63234;37.558;127.058;2024-01-30T12:01:47;7.43;;;4.13;;
74715;SDS011;63234;37.558;127.058;2024-01-30T12:04:12;11.60;;;5.75;;
74715;SDS011;63234;37.558;127.058;2024-01-30T12:06:38;9.38;;;4.20;;
74715;SDS011;63234;37.558;127.058;2024-01-30T12:09:04;8.65;;;4.45;;
74715;SDS011;63234;37.558;127.058;2024-01-30T12:11:29;8.30;;;4.18;;
74715;SDS011;63234;37.558;127.058;2024-01-30T12:13:55;7.82;;;3.78;;
74715;SDS011;63234;37.558;127.058;2024-01-30T12:16:21;12.13;;;4.32;;
74715;SDS011;63234;37.558;127.058;2024-01-30T12:18:47;10.48;;;4.03;;
74715;SDS011;63234;37.558;127.058;2024-01-30T12:21:15;8.80;;;3.65;;
74715;SDS011;63234;37.558;127.058;2024-01-30T12:23:41;5.53;;;3.80;;
74715;SDS011;63234;37.558;127.058;2024-01-30T12:26:07;9.55;;;3.25;;
74715;SDS011;63234;37.558;127.058;2024-01-30T12:28:33;6.82;;;3.60;;
74715;SDS011;63234;37.558;127.058;2024-01-30T12:31:02;7.38;;;3.83;;
74715;SDS011;63234;37.558;127.058;2024-01-30T12:33:28;6.88;;;3.35;;
74715;SDS011;63234;37.558;127.058;2024-01-30T12:35:57;7.32;;;4.18;;
74715;SDS011;63234;37.558;127.058;2024-01-30T12:38:26;6.82;;;3.90;;
74715;SDS011;63234;37.558;127.058;2024-01-30T12:40:55;6.20;;;3.70;;
74715;SDS011;63234;37.558;127.058;2024-01-30T12:43:21;8.57;;;3.70;;
74715;SDS011;63234;37.558;127.058;2024-01-30T12:45:47;6.28;;;3.95;;
74715;SDS011;63234;37.558;127.058;2024-01-30T12:48:12;8.50;;;4.75;;
74715;SDS011;63234;37.558;127.058;2024-01-30T12:50:38;8.07;;;4.10;;
74715;SDS011;63234;37.558;127.058;2024-01-30T12:53:03;7.55;;;3.42;;
74715;SDS011;63234;37.558;127.058;2024-01-30T12:55:29;7.28;;;3.22;;
74715;SDS011;63234;37.558;127.058;2024-01-30T12:57:55;6.90;;;4.18;;
74715;SDS011;63234;37.558;127.058;2024-01-30T13:00:21;53.92;;;43.35;;
74715;SDS011;63234;37.558;127.058;2024-01-30T13:02:47;17.08;;;14.88;;
74715;SDS011;63234;37.558;127.058;2024-01-30T13:05:13;15.65;;;12.98;;
74715;SDS011;63234;37.558;127.058;2024-01-30T13:07:38;11.25;;;8.00;;
74715;SDS011;63234;37.558;127.058;2024-01-30T13:10:04;9.93;;;6.65;;
74715;SDS011;63234;37.558;127.058;2024-01-30T13:12:30;12.15;;;5.35;;
74715;SDS011;63234;37.558;127.058;2024-01-30T13:14:57;11.30;;;5.57;;
74715;SDS011;63234;37.558;127.058;2024-01-30T13:17:22;10.13;;;7.47;;
74715;SDS011;63234;37.558;127.058;2024-01-30T13:19:48;12.05;;;7.53;;
74715;SDS011;63234;37.558;127.058;2024-01-30T13:22:14;10.27;;;5.55;;
74715;SDS011;63234;37.558;127.058;2024-01-30T13:24:40;13.80;;;9.75;;
74715;SDS011;63234;37.558;127.058;2024-01-30T13:27:06;16.85;;;12.13;;
74715;SDS011;63234;37.558;127.058;2024-01-30T13:29:32;15.60;;;14.10;;
74715;SDS011;63234;37.558;127.058;2024-01-30T13:31:57;19.00;;;16.95;;
74715;SDS011;63234;37.558;127.058;2024-01-30T13:34:23;16.70;;;15.00;;
74715;SDS011;63234;37.558;127.058;2024-01-30T13:36:48;14.18;;;12.60;;
74715;SDS011;63234;37.558;127.058;2024-01-30T13:39:14;14.38;;;12.85;;
74715;SDS011;63234;37.558;127.058;2024-01-30T13:41:41;21.92;;;18.77;;
74715;SDS011;63234;37.558;127.058;2024-01-30T13:44:07;24.08;;;19.60;;
74715;SDS011;63234;37.558;127.058;2024-01-30T13:46:32;23.17;;;21.02;;
74715;SDS011;63234;37.558;127.058;2024-01-30T13:48:58;32.70;;;29.52;;
74715;SDS011;63234;37.558;127.058;2024-01-30T13:51:23;33.05;;;29.98;;
74715;SDS011;63234;37.558;127.058;2024-01-30T13:53:48;36.55;;;33.13;;
74715;SDS011;63234;37.558;127.058;2024-01-30T13:56:15;32.70;;;27.35;;
74715;SDS011;63234;37.558;127.058;2024-01-30T13:58:40;33.25;;;30.20;;
74715;SDS011;63234;37.558;127.058;2024-01-30T14:01:06;31.50;;;28.85;;
74715;SDS011;63234;37.558;127.058;2024-01-30T14:03:31;36.15;;;32.42;;
74715;SDS011;63234;37.558;127.058;2024-01-30T14:05:57;36.65;;;33.22;;
74715;SDS011;63234;37.558;127.058;2024-01-30T14:08:23;24.70;;;22.40;;